sensor_id;sensor_type;location;lat;lon;timestamp;temperature;humidity
2783;DHT22;1399;47.072;15.452;2023-03-19T00:01:28;10.10;41.30
2783;DHT22;1399;47.072;15.452;2023-03-19T00:03:53;10.10;41.30
2783;DHT22;1399;47.072;15.452;2023-03-19T00:06:20;10.10;41.40
2783;DHT22;1399;47.072;15.452;2023-03-19T00:08:45;10.10;41.40
2783;DHT22;1399;47.072;15.452;2023-03-19T00:11:12;10.10;41.50
2783;DHT22;1399;47.072;15.452;2023-03-19T00:13:38;10.00;41.40
2783;DHT22;1399;47.072;15.452;2023-03-19T00:16:05;10.00;41.40
2783;DHT22;1399;47.072;15.452;2023-03-19T00:18:31;10.00;41.50
2783;DHT22;1399;47.072;15.452;2023-03-19T00:20:58;10.00;41.50
2783;DHT22;1399;47.072;15.452;2023-03-19T00:23:24;10.00;41.50
2783;DHT22;1399;47.072;15.452;2023-03-19T00:25:50;10.00;41.60
2783;DHT22;1399;47.072;15.452;2023-03-19T00:28:15;10.00;41.60
2783;DHT22;1399;47.072;15.452;2023-03-19T00:30:41;9.90;42.40
2783;DHT22;1399;47.072;15.452;2023-03-19T00:33:09;10.00;41.60
2783;DHT22;1399;47.072;15.452;2023-03-19T00:35:35;9.90;42.50
2783;DHT22;1399;47.072;15.452;2023-03-19T00:38:01;9.90;42.50
2783;DHT22;1399;47.072;15.452;2023-03-19T00:40:27;9.90;42.50
2783;DHT22;1399;47.072;15.452;2023-03-19T00:42:53;9.90;42.50
2783;DHT22;1399;47.072;15.452;2023-03-19T00:45:18;9.90;42.50
2783;DHT22;1399;47.072;15.452;2023-03-19T00:47:44;9.90;42.60
2783;DHT22;1399;47.072;15.452;2023-03-19T00:50:10;9.90;42.60
2783;DHT22;1399;47.072;15.452;2023-03-19T00:52:36;9.90;42.60
2783;DHT22;1399;47.072;15.452;2023-03-19T00:55:02;9.90;42.60
2783;DHT22;1399;47.072;15.452;2023-03-19T00:57:28;9.90;42.60
2783;DHT22;1399;47.072;15.452;2023-03-19T00:59:53;9.90;42.60
2783;DHT22;1399;47.072;15.452;2023-03-19T01:02:19;9.80;42.60
2783;DHT22;1399;47.072;15.452;2023-03-19T01:04:47;9.80;42.60
2783;DHT22;1399;47.072;15.452;2023-03-19T01:07:13;9.80;42.70
2783;DHT22;1399;47.072;15.452;2023-03-19T01:09:40;9.80;42.70
2783;DHT22;1399;47.072;15.452;2023-03-19T01:12:06;9.70;42.70
2783;DHT22;1399;47.072;15.452;2023-03-19T01:14:33;9.70;42.70
2783;DHT22;1399;47.072;15.452;2023-03-19T01:16:59;9.70;42.80
2783;DHT22;1399;47.072;15.452;2023-03-19T01:19:25;9.70;42.80
2783;DHT22;1399;47.072;15.452;2023-03-19T01:21:51;9.70;42.80
2783;DHT22;1399;47.072;15.452;2023-03-19T01:24:17;9.70;42.80
2783;DHT22;1399;47.072;15.452;2023-03-19T01:26:43;9.70;42.80
2783;DHT22;1399;47.072;15.452;2023-03-19T01:29:09;9.70;42.80
2783;DHT22;1399;47.072;15.452;2023-03-19T01:31:35;9.60;42.90
2783;DHT22;1399;47.072;15.452;2023-03-19T01:34:01;9.60;42.90
2783;DHT22;1399;47.072;15.452;2023-03-19T01:36:27;9.60;42.90
2783;DHT22;1399;47.072;15.452;2023-03-19T01:38:54;9.60;42.90
2783;DHT22;1399;47.072;15.452;2023-03-19T01:41:21;9.60;43.00
2783;DHT22;1399;47.072;15.452;2023-03-19T01:43:48;9.60;43.00
2783;DHT22;1399;47.072;15.452;2023-03-19T01:46:32;9.60;43.00
2783;DHT22;1399;47.072;15.452;2023-03-19T01:49:07;9.50;43.00
2783;DHT22;1399;47.072;15.452;2023-03-19T01:51:42;9.60;43.10
2783;DHT22;1399;47.072;15.452;2023-03-19T01:54:16;9.60;43.10
2783;DHT22;1399;47.072;15.452;2023-03-19T01:56:46;9.60;43.10
2783;DHT22;1399;47.072;15.452;2023-03-19T01:59:22;9.50;43.00
2783;DHT22;1399;47.072;15.452;2023-03-19T02:01:55;9.50;43.10
2783;DHT22;1399;47.072;15.452;2023-03-19T02:04:23;9.50;43.10
2783;DHT22;1399;47.072;15.452;2023-03-19T02:06:49;9.50;43.20
2783;DHT22;1399;47.072;15.452;2023-03-19T02:09:17;9.50;43.30
2783;DHT22;1399;47.072;15.452;2023-03-19T02:11:44;9.50;43.30
2783;DHT22;1399;47.072;15.452;2023-03-19T02:14:10;9.50;43.30
2783;DHT22;1399;47.072;15.452;2023-03-19T02:16:38;9.40;43.20
2783;DHT22;1399;47.072;15.452;2023-03-19T02:19:05;9.50;43.30
2783;DHT22;1399;47.072;15.452;2023-03-19T02:21:33;9.40;43.20
2783;DHT22;1399;47.072;15.452;2023-03-19T02:24:24;9.40;43.30
2783;DHT22;1399;47.072;15.452;2023-03-19T02:26:50;9.40;43.30
2783;DHT22;1399;47.072;15.452;2023-03-19T02:29:17;9.40;43.30
2783;DHT22;1399;47.072;15.452;2023-03-19T02:31:42;9.40;43.40
2783;DHT22;1399;47.072;15.452;2023-03-19T02:36:50;9.40;43.40
2783;DHT22;1399;47.072;15.452;2023-03-19T02:39:35;9.40;43.40
2783;DHT22;1399;47.072;15.452;2023-03-19T02:42:03;9.40;43.50
2783;DHT22;1399;47.072;15.452;2023-03-19T02:44:30;9.40;43.50
2783;DHT22;1399;47.072;15.452;2023-03-19T02:46:56;9.40;43.50
2783;DHT22;1399;47.072;15.452;2023-03-19T02:49:21;9.40;43.50
2783;DHT22;1399;47.072;15.452;2023-03-19T02:51:48;9.40;43.50
2783;DHT22;1399;47.072;15.452;2023-03-19T02:54:13;9.30;43.50
2783;DHT22;1399;47.072;15.452;2023-03-19T02:56:39;9.40;43.60
2783;DHT22;1399;47.072;15.452;2023-03-19T02:59:05;9.30;43.50
2783;DHT22;1399;47.072;15.452;2023-03-19T03:01:31;9.30;43.60
2783;DHT22;1399;47.072;15.452;2023-03-19T03:03:57;9.30;43.60
2783;DHT22;1399;47.072;15.452;2023-03-19T03:06:23;9.30;43.60
2783;DHT22;1399;47.072;15.452;2023-03-19T03:08:49;9.30;43.60
2783;DHT22;1399;47.072;15.452;2023-03-19T03:11:15;9.30;43.60
2783;DHT22;1399;47.072;15.452;2023-03-19T03:13:40;9.30;43.60
2783;DHT22;1399;47.072;15.452;2023-03-19T03:16:06;9.30;44.30
2783;DHT22;1399;47.072;15.452;2023-03-19T03:18:32;9.30;43.70
2783;DHT22;1399;47.072;15.452;2023-03-19T03:20:58;9.30;43.80
2783;DHT22;1399;47.072;15.452;2023-03-19T03:23:24;9.30;43.80
2783;DHT22;1399;47.072;15.452;2023-03-19T03:25:52;9.20;43.70
2783;DHT22;1399;47.072;15.452;2023-03-19T03:28:18;9.20;43.80
2783;DHT22;1399;47.072;15.452;2023-03-19T03:30:45;9.20;43.80
2783;DHT22;1399;47.072;15.452;2023-03-19T03:33:11;9.20;43.80
2783;DHT22;1399;47.072;15.452;2023-03-19T03:35:37;9.20;43.90
2783;DHT22;1399;47.072;15.452;2023-03-19T03:38:03;9.20;43.90
2783;DHT22;1399;47.072;15.452;2023-03-19T03:40:29;9.20;43.90
2783;DHT22;1399;47.072;15.452;2023-03-19T03:42:55;9.20;43.90
2783;DHT22;1399;47.072;15.452;2023-03-19T03:45:21;9.20;43.90
2783;DHT22;1399;47.072;15.452;2023-03-19T03:47:47;9.20;43.90
2783;DHT22;1399;47.072;15.452;2023-03-19T03:50:13;9.20;44.00
2783;DHT22;1399;47.072;15.452;2023-03-19T03:52:39;9.20;43.90
2783;DHT22;1399;47.072;15.452;2023-03-19T03:55:07;9.20;44.00
2783;DHT22;1399;47.072;15.452;2023-03-19T03:57:33;9.20;44.00
2783;DHT22;1399;47.072;15.452;2023-03-19T04:00:00;9.20;44.00
2783;DHT22;1399;47.072;15.452;2023-03-19T04:02:25;9.10;44.00
2783;DHT22;1399;47.072;15.452;2023-03-19T04:04:52;9.10;44.00
2783;DHT22;1399;47.072;15.452;2023-03-19T04:07:19;9.10;44.00
2783;DHT22;1399;47.072;15.452;2023-03-19T04:09:45;9.10;44.10
2783;DHT22;1399;47.072;15.452;2023-03-19T04:12:11;9.10;44.10
2783;DHT22;1399;47.072;15.452;2023-03-19T04:14:37;9.10;44.10
2783;DHT22;1399;47.072;15.452;2023-03-19T04:17:03;9.10;44.20
2783;DHT22;1399;47.072;15.452;2023-03-19T04:19:30;9.10;44.20
2783;DHT22;1399;47.072;15.452;2023-03-19T04:21:56;9.10;44.20
2783;DHT22;1399;47.072;15.452;2023-03-19T04:24:23;9.00;44.10
2783;DHT22;1399;47.072;15.452;2023-03-19T04:26:48;9.10;44.20
2783;DHT22;1399;47.072;15.452;2023-03-19T04:29:15;9.00;44.10
2783;DHT22;1399;47.072;15.452;2023-03-19T04:31:41;9.00;44.10
2783;DHT22;1399;47.072;15.452;2023-03-19T04:34:06;9.00;44.20
2783;DHT22;1399;47.072;15.452;2023-03-19T04:36:32;9.00;44.20
2783;DHT22;1399;47.072;15.452;2023-03-19T04:38:58;9.00;44.20
2783;DHT22;1399;47.072;15.452;2023-03-19T04:41:23;9.00;44.20
2783;DHT22;1399;47.072;15.452;2023-03-19T04:43:50;9.00;44.20
2783;DHT22;1399;47.072;15.452;2023-03-19T04:46:16;9.00;44.20
2783;DHT22;1399;47.072;15.452;2023-03-19T04:48:42;9.00;44.20
2783;DHT22;1399;47.072;15.452;2023-03-19T04:51:07;9.00;44.20
2783;DHT22;1399;47.072;15.452;2023-03-19T04:53:35;9.00;44.20
2783;DHT22;1399;47.072;15.452;2023-03-19T04:56:02;8.90;44.20
2783;DHT22;1399;47.072;15.452;2023-03-19T04:58:28;8.90;44.20
2783;DHT22;1399;47.072;15.452;2023-03-19T05:00:54;8.90;44.20
2783;DHT22;1399;47.072;15.452;2023-03-19T05:03:19;8.90;44.90
2783;DHT22;1399;47.072;15.452;2023-03-19T05:05:46;8.90;44.30
2783;DHT22;1399;47.072;15.452;2023-03-19T05:08:12;8.90;44.30
2783;DHT22;1399;47.072;15.452;2023-03-19T05:10:38;8.90;44.30
2783;DHT22;1399;47.072;15.452;2023-03-19T05:13:04;8.90;44.30
2783;DHT22;1399;47.072;15.452;2023-03-19T05:15:31;8.90;44.30
2783;DHT22;1399;47.072;15.452;2023-03-19T05:17:57;8.90;44.30
2783;DHT22;1399;47.072;15.452;2023-03-19T05:20:23;8.90;44.30
2783;DHT22;1399;47.072;15.452;2023-03-19T05:22:51;8.90;44.30
2783;DHT22;1399;47.072;15.452;2023-03-19T05:25:17;8.90;44.20
2783;DHT22;1399;47.072;15.452;2023-03-19T05:27:44;8.90;44.20
2783;DHT22;1399;47.072;15.452;2023-03-19T05:30:10;8.90;44.20
2783;DHT22;1399;47.072;15.452;2023-03-19T05:32:37;8.90;44.20
2783;DHT22;1399;47.072;15.452;2023-03-19T05:35:03;8.90;44.20
2783;DHT22;1399;47.072;15.452;2023-03-19T05:37:30;8.90;44.20
2783;DHT22;1399;47.072;15.452;2023-03-19T05:39:56;8.90;44.20
2783;DHT22;1399;47.072;15.452;2023-03-19T05:42:21;9.00;44.20
2783;DHT22;1399;47.072;15.452;2023-03-19T05:44:47;9.00;44.20
2783;DHT22;1399;47.072;15.452;2023-03-19T05:47:13;9.00;44.20
2783;DHT22;1399;47.072;15.452;2023-03-19T05:49:39;9.00;44.20
2783;DHT22;1399;47.072;15.452;2023-03-19T05:52:05;9.00;44.20
2783;DHT22;1399;47.072;15.452;2023-03-19T05:54:30;9.10;44.20
2783;DHT22;1399;47.072;15.452;2023-03-19T05:56:56;9.10;44.20
2783;DHT22;1399;47.072;15.452;2023-03-19T05:59:22;9.10;44.20
2783;DHT22;1399;47.072;15.452;2023-03-19T06:01:48;9.10;44.20
2783;DHT22;1399;47.072;15.452;2023-03-19T06:04:13;9.20;44.10
2783;DHT22;1399;47.072;15.452;2023-03-19T06:06:40;9.20;44.00
2783;DHT22;1399;47.072;15.452;2023-03-19T06:09:05;9.30;44.10
2783;DHT22;1399;47.072;15.452;2023-03-19T06:11:31;9.30;44.00
2783;DHT22;1399;47.072;15.452;2023-03-19T06:13:57;9.40;43.90
2783;DHT22;1399;47.072;15.452;2023-03-19T06:16:23;9.40;43.90
2783;DHT22;1399;47.072;15.452;2023-03-19T06:18:48;9.40;43.90
2783;DHT22;1399;47.072;15.452;2023-03-19T06:21:14;9.40;43.90
2783;DHT22;1399;47.072;15.452;2023-03-19T06:23:40;9.50;43.90
2783;DHT22;1399;47.072;15.452;2023-03-19T06:26:06;9.50;44.00
2783;DHT22;1399;47.072;15.452;2023-03-19T06:28:31;9.50;44.00
2783;DHT22;1399;47.072;15.452;2023-03-19T06:30:57;9.60;44.00
2783;DHT22;1399;47.072;15.452;2023-03-19T06:33:23;9.60;44.00
2783;DHT22;1399;47.072;15.452;2023-03-19T06:35:52;9.70;44.00
2783;DHT22;1399;47.072;15.452;2023-03-19T06:38:18;9.80;44.00
2783;DHT22;1399;47.072;15.452;2023-03-19T06:40:43;9.80;43.90
2783;DHT22;1399;47.072;15.452;2023-03-19T06:43:09;9.90;44.00
2783;DHT22;1399;47.072;15.452;2023-03-19T06:45:35;9.90;44.00
2783;DHT22;1399;47.072;15.452;2023-03-19T06:48:01;10.00;43.10
2783;DHT22;1399;47.072;15.452;2023-03-19T06:50:26;10.00;43.00
2783;DHT22;1399;47.072;15.452;2023-03-19T06:52:52;10.10;43.00
2783;DHT22;1399;47.072;15.452;2023-03-19T06:55:18;10.20;42.90
2783;DHT22;1399;47.072;15.452;2023-03-19T06:57:48;10.20;42.80
2783;DHT22;1399;47.072;15.452;2023-03-19T07:00:15;10.30;42.90
2783;DHT22;1399;47.072;15.452;2023-03-19T07:02:41;10.30;42.80
2783;DHT22;1399;47.072;15.452;2023-03-19T07:05:08;10.40;42.80
2783;DHT22;1399;47.072;15.452;2023-03-19T07:07:33;10.40;42.80
2783;DHT22;1399;47.072;15.452;2023-03-19T07:09:59;10.50;42.80
2783;DHT22;1399;47.072;15.452;2023-03-19T07:12:25;10.50;42.80
2783;DHT22;1399;47.072;15.452;2023-03-19T07:14:54;10.60;42.70
2783;DHT22;1399;47.072;15.452;2023-03-19T07:17:21;10.60;42.60
2783;DHT22;1399;47.072;15.452;2023-03-19T07:19:47;10.60;42.60
2783;DHT22;1399;47.072;15.452;2023-03-19T07:22:13;10.70;42.50
2783;DHT22;1399;47.072;15.452;2023-03-19T07:24:39;10.70;42.40
2783;DHT22;1399;47.072;15.452;2023-03-19T07:27:05;10.70;42.30
2783;DHT22;1399;47.072;15.452;2023-03-19T07:29:30;10.80;42.40
2783;DHT22;1399;47.072;15.452;2023-03-19T07:31:56;10.80;42.30
2783;DHT22;1399;47.072;15.452;2023-03-19T07:34:22;10.90;42.90
2783;DHT22;1399;47.072;15.452;2023-03-19T07:36:48;10.90;42.20
2783;DHT22;1399;47.072;15.452;2023-03-19T07:39:13;11.00;42.80
2783;DHT22;1399;47.072;15.452;2023-03-19T07:41:40;11.00;42.10
2783;DHT22;1399;47.072;15.452;2023-03-19T07:44:06;11.10;42.10
2783;DHT22;1399;47.072;15.452;2023-03-19T07:46:31;11.10;42.00
2783;DHT22;1399;47.072;15.452;2023-03-19T07:48:57;11.20;41.90
2783;DHT22;1399;47.072;15.452;2023-03-19T07:51:23;11.20;41.90
2783;DHT22;1399;47.072;15.452;2023-03-19T07:53:48;11.30;41.90
2783;DHT22;1399;47.072;15.452;2023-03-19T07:56:14;11.30;41.80
2783;DHT22;1399;47.072;15.452;2023-03-19T07:58:40;11.40;41.80
2783;DHT22;1399;47.072;15.452;2023-03-19T08:01:07;11.40;41.80
2783;DHT22;1399;47.072;15.452;2023-03-19T08:03:32;11.50;41.70
2783;DHT22;1399;47.072;15.452;2023-03-19T08:05:58;11.50;41.60
2783;DHT22;1399;47.072;15.452;2023-03-19T08:08:24;11.50;41.50
2783;DHT22;1399;47.072;15.452;2023-03-19T08:10:53;11.60;41.60
2783;DHT22;1399;47.072;15.452;2023-03-19T08:13:19;11.70;41.50
2783;DHT22;1399;47.072;15.452;2023-03-19T08:15:44;11.70;41.50
2783;DHT22;1399;47.072;15.452;2023-03-19T08:18:10;11.80;41.40
2783;DHT22;1399;47.072;15.452;2023-03-19T08:20:36;11.90;41.40
2783;DHT22;1399;47.072;15.452;2023-03-19T08:23:02;11.90;41.20
2783;DHT22;1399;47.072;15.452;2023-03-19T08:25:30;12.00;41.20
2783;DHT22;1399;47.072;15.452;2023-03-19T08:27:58;12.00;41.10
2783;DHT22;1399;47.072;15.452;2023-03-19T08:30:23;12.10;41.00
2783;DHT22;1399;47.072;15.452;2023-03-19T08:32:49;12.10;40.90
2783;DHT22;1399;47.072;15.452;2023-03-19T08:35:15;12.20;40.90
2783;DHT22;1399;47.072;15.452;2023-03-19T08:37:41;12.20;40.80
2783;DHT22;1399;47.072;15.452;2023-03-19T08:40:08;12.20;40.70
2783;DHT22;1399;47.072;15.452;2023-03-19T08:42:34;12.30;40.70
2783;DHT22;1399;47.072;15.452;2023-03-19T08:45:00;12.30;40.60
2783;DHT22;1399;47.072;15.452;2023-03-19T08:47:25;12.30;40.60
2783;DHT22;1399;47.072;15.452;2023-03-19T08:49:51;12.30;40.50
2783;DHT22;1399;47.072;15.452;2023-03-19T08:52:18;12.40;40.60
2783;DHT22;1399;47.072;15.452;2023-03-19T08:54:44;12.40;40.50
2783;DHT22;1399;47.072;15.452;2023-03-19T08:57:10;12.50;40.50
2783;DHT22;1399;47.072;15.452;2023-03-19T08:59:35;12.50;40.50
2783;DHT22;1399;47.072;15.452;2023-03-19T09:02:01;12.50;40.40
2783;DHT22;1399;47.072;15.452;2023-03-19T09:04:27;12.60;40.50
2783;DHT22;1399;47.072;15.452;2023-03-19T09:06:53;12.60;40.50
2783;DHT22;1399;47.072;15.452;2023-03-19T09:09:21;12.60;40.50
2783;DHT22;1399;47.072;15.452;2023-03-19T09:11:47;12.70;40.50
2783;DHT22;1399;47.072;15.452;2023-03-19T09:14:14;12.70;40.50
2783;DHT22;1399;47.072;15.452;2023-03-19T09:16:41;12.80;40.60
2783;DHT22;1399;47.072;15.452;2023-03-19T09:19:07;12.80;40.60
2783;DHT22;1399;47.072;15.452;2023-03-19T09:21:34;12.80;40.50
2783;DHT22;1399;47.072;15.452;2023-03-19T09:24:01;12.90;40.60
2783;DHT22;1399;47.072;15.452;2023-03-19T09:26:27;12.90;40.60
2783;DHT22;1399;47.072;15.452;2023-03-19T09:28:53;12.90;40.60
2783;DHT22;1399;47.072;15.452;2023-03-19T09:31:18;13.00;40.60
2783;DHT22;1399;47.072;15.452;2023-03-19T09:33:44;13.00;40.60
2783;DHT22;1399;47.072;15.452;2023-03-19T09:36:10;13.00;40.70
2783;DHT22;1399;47.072;15.452;2023-03-19T09:38:36;13.10;40.70
2783;DHT22;1399;47.072;15.452;2023-03-19T09:44:20;13.10;40.70
2783;DHT22;1399;47.072;15.452;2023-03-19T09:47:31;13.20;40.70
2783;DHT22;1399;47.072;15.452;2023-03-19T09:49:59;13.20;41.40
2783;DHT22;1399;47.072;15.452;2023-03-19T09:57:56;13.40;40.80
2783;DHT22;1399;47.072;15.452;2023-03-19T10:00:33;13.40;40.70
2783;DHT22;1399;47.072;15.452;2023-03-19T10:03:22;13.40;40.70
2783;DHT22;1399;47.072;15.452;2023-03-19T10:13:44;13.60;40.70
2783;DHT22;1399;47.072;15.452;2023-03-19T10:16:21;13.70;40.60
2783;DHT22;1399;47.072;15.452;2023-03-19T10:18:49;13.70;40.60
2783;DHT22;1399;47.072;15.452;2023-03-19T10:21:34;13.80;40.70
2783;DHT22;1399;47.072;15.452;2023-03-19T10:26:50;13.80;40.60
2783;DHT22;1399;47.072;15.452;2023-03-19T10:29:22;13.90;40.60
2783;DHT22;1399;47.072;15.452;2023-03-19T10:32:06;13.90;40.60
2783;DHT22;1399;47.072;15.452;2023-03-19T10:34:41;13.90;40.60
2783;DHT22;1399;47.072;15.452;2023-03-19T10:37:25;13.90;40.60
2783;DHT22;1399;47.072;15.452;2023-03-19T10:39:55;14.00;40.70
2783;DHT22;1399;47.072;15.452;2023-03-19T10:47:46;14.00;40.90
2783;DHT22;1399;47.072;15.452;2023-03-19T10:50:21;14.00;41.00
2783;DHT22;1399;47.072;15.452;2023-03-19T10:52:51;14.00;41.10
2783;DHT22;1399;47.072;15.452;2023-03-19T10:55:24;14.10;41.20
2783;DHT22;1399;47.072;15.452;2023-03-19T10:57:55;14.10;41.20
2783;DHT22;1399;47.072;15.452;2023-03-19T11:00:28;14.10;41.20
2783;DHT22;1399;47.072;15.452;2023-03-19T11:02:56;14.10;41.20
2783;DHT22;1399;47.072;15.452;2023-03-19T11:05:33;14.20;41.40
2783;DHT22;1399;47.072;15.452;2023-03-19T11:08:04;14.20;41.40
2783;DHT22;1399;47.072;15.452;2023-03-19T11:10:35;14.30;41.50
2783;DHT22;1399;47.072;15.452;2023-03-19T11:13:14;14.30;41.40
2783;DHT22;1399;47.072;15.452;2023-03-19T11:15:40;14.40;41.40
2783;DHT22;1399;47.072;15.452;2023-03-19T11:18:19;14.40;41.30
2783;DHT22;1399;47.072;15.452;2023-03-19T11:21:00;14.50;41.20
2783;DHT22;1399;47.072;15.452;2023-03-19T11:23:37;14.50;41.20
2783;DHT22;1399;47.072;15.452;2023-03-19T11:26:04;14.60;41.20
2783;DHT22;1399;47.072;15.452;2023-03-19T11:28:30;14.60;41.10
2783;DHT22;1399;47.072;15.452;2023-03-19T11:34:12;14.70;41.10
2783;DHT22;1399;47.072;15.452;2023-03-19T11:36:56;14.70;41.10
2783;DHT22;1399;47.072;15.452;2023-03-19T11:44:40;14.80;41.40
2783;DHT22;1399;47.072;15.452;2023-03-19T11:47:28;14.80;41.50
2783;DHT22;1399;47.072;15.452;2023-03-19T11:56:09;14.80;41.60
2783;DHT22;1399;47.072;15.452;2023-03-19T11:58:59;14.90;41.70
2783;DHT22;1399;47.072;15.452;2023-03-19T12:04:18;14.80;41.70
2783;DHT22;1399;47.072;15.452;2023-03-19T12:07:02;14.80;41.80
2783;DHT22;1399;47.072;15.452;2023-03-19T12:12:59;14.80;41.80
2783;DHT22;1399;47.072;15.452;2023-03-19T12:24:15;14.80;42.00
2783;DHT22;1399;47.072;15.452;2023-03-19T12:26:53;14.80;42.00
2783;DHT22;1399;47.072;15.452;2023-03-19T12:29:35;14.80;42.10
2783;DHT22;1399;47.072;15.452;2023-03-19T12:34:52;14.90;42.30
2783;DHT22;1399;47.072;15.452;2023-03-19T12:37:22;14.90;42.30
2783;DHT22;1399;47.072;15.452;2023-03-19T12:42:42;14.90;42.50
2783;DHT22;1399;47.072;15.452;2023-03-19T12:47:42;14.90;42.80
2783;DHT22;1399;47.072;15.452;2023-03-19T12:50:13;14.90;42.80
2783;DHT22;1399;47.072;15.452;2023-03-19T12:52:49;15.00;43.00
2783;DHT22;1399;47.072;15.452;2023-03-19T12:57:57;15.00;43.20
2783;DHT22;1399;47.072;15.452;2023-03-19T13:03:24;15.00;43.30
2783;DHT22;1399;47.072;15.452;2023-03-19T13:06:05;15.00;43.40
2783;DHT22;1399;47.072;15.452;2023-03-19T13:08:44;15.00;43.50
2783;DHT22;1399;47.072;15.452;2023-03-19T13:11:19;15.00;43.50
2783;DHT22;1399;47.072;15.452;2023-03-19T13:13:55;15.00;43.60
2783;DHT22;1399;47.072;15.452;2023-03-19T13:19:29;15.00;43.60
2783;DHT22;1399;47.072;15.452;2023-03-19T13:21:59;15.10;43.70
2783;DHT22;1399;47.072;15.452;2023-03-19T13:24:38;15.10;43.70
2783;DHT22;1399;47.072;15.452;2023-03-19T13:27:08;15.10;44.30
2783;DHT22;1399;47.072;15.452;2023-03-19T13:29:36;15.10;43.50
2783;DHT22;1399;47.072;15.452;2023-03-19T13:32:26;15.20;43.60
2783;DHT22;1399;47.072;15.452;2023-03-19T13:37:41;15.30;43.50
2783;DHT22;1399;47.072;15.452;2023-03-19T13:40:37;15.30;43.40
2783;DHT22;1399;47.072;15.452;2023-03-19T13:43:03;15.40;43.40
2783;DHT22;1399;47.072;15.452;2023-03-19T13:45:34;15.40;43.30
2783;DHT22;1399;47.072;15.452;2023-03-19T13:48:33;15.40;43.40
2783;DHT22;1399;47.072;15.452;2023-03-19T13:56:16;15.50;43.40
2783;DHT22;1399;47.072;15.452;2023-03-19T13:58:46;15.50;43.30
2783;DHT22;1399;47.072;15.452;2023-03-19T14:04:01;15.60;43.30
2783;DHT22;1399;47.072;15.452;2023-03-19T14:06:32;15.60;43.10
2783;DHT22;1399;47.072;15.452;2023-03-19T14:08:59;15.60;43.00
2783;DHT22;1399;47.072;15.452;2023-03-19T14:11:34;15.70;43.00
2783;DHT22;1399;47.072;15.452;2023-03-19T14:14:04;15.60;42.90
2783;DHT22;1399;47.072;15.452;2023-03-19T14:16:35;15.60;43.00
2783;DHT22;1399;47.072;15.452;2023-03-19T14:19:08;15.70;43.10
2783;DHT22;1399;47.072;15.452;2023-03-19T14:24:36;15.70;43.00
2783;DHT22;1399;47.072;15.452;2023-03-19T14:27:13;15.70;43.00
2783;DHT22;1399;47.072;15.452;2023-03-19T14:29:43;15.70;43.10
2783;DHT22;1399;47.072;15.452;2023-03-19T14:32:16;15.70;43.10
2783;DHT22;1399;47.072;15.452;2023-03-19T14:34:43;15.70;43.10
2783;DHT22;1399;47.072;15.452;2023-03-19T14:39:44;15.60;43.00
2783;DHT22;1399;47.072;15.452;2023-03-19T14:56:32;15.60;42.80
2783;DHT22;1399;47.072;15.452;2023-03-19T14:58:59;15.70;42.90
2783;DHT22;1399;47.072;15.452;2023-03-19T15:01:31;15.60;42.90
2783;DHT22;1399;47.072;15.452;2023-03-19T15:04:03;15.60;42.80
2783;DHT22;1399;47.072;15.452;2023-03-19T15:06:36;15.60;42.70
2783;DHT22;1399;47.072;15.452;2023-03-19T15:09:16;15.60;42.70
2783;DHT22;1399;47.072;15.452;2023-03-19T15:11:48;15.60;42.60
2783;DHT22;1399;47.072;15.452;2023-03-19T15:19:42;15.60;42.50
2783;DHT22;1399;47.072;15.452;2023-03-19T15:22:24;15.60;42.50
2783;DHT22;1399;47.072;15.452;2023-03-19T15:24:51;15.60;42.50
2783;DHT22;1399;47.072;15.452;2023-03-19T15:27:23;15.60;42.50
2783;DHT22;1399;47.072;15.452;2023-03-19T15:29:51;15.60;42.60
2783;DHT22;1399;47.072;15.452;2023-03-19T15:32:31;15.50;42.50
2783;DHT22;1399;47.072;15.452;2023-03-19T15:34:58;15.50;42.50
2783;DHT22;1399;47.072;15.452;2023-03-19T15:37:26;15.50;42.50
2783;DHT22;1399;47.072;15.452;2023-03-19T15:39:54;15.50;42.40
2783;DHT22;1399;47.072;15.452;2023-03-19T15:42:23;15.50;42.40
2783;DHT22;1399;47.072;15.452;2023-03-19T15:45:01;15.50;42.40
2783;DHT22;1399;47.072;15.452;2023-03-19T15:47:30;15.50;42.40
2783;DHT22;1399;47.072;15.452;2023-03-19T15:50:03;15.40;42.30
2783;DHT22;1399;47.072;15.452;2023-03-19T15:52:34;15.40;42.30
2783;DHT22;1399;47.072;15.452;2023-03-19T15:55:03;15.40;42.30
2783;DHT22;1399;47.072;15.452;2023-03-19T15:57:29;15.40;42.30
2783;DHT22;1399;47.072;15.452;2023-03-19T15:59:58;15.40;42.20
2783;DHT22;1399;47.072;15.452;2023-03-19T16:02:28;15.40;42.20
2783;DHT22;1399;47.072;15.452;2023-03-19T16:04:56;15.40;42.20
2783;DHT22;1399;47.072;15.452;2023-03-19T16:07:25;15.40;42.20
2783;DHT22;1399;47.072;15.452;2023-03-19T16:09:52;15.40;42.10
2783;DHT22;1399;47.072;15.452;2023-03-19T16:12:47;15.30;42.00
2783;DHT22;1399;47.072;15.452;2023-03-19T16:23:54;15.30;42.00
2783;DHT22;1399;47.072;15.452;2023-03-19T16:26:25;15.30;42.00
2783;DHT22;1399;47.072;15.452;2023-03-19T16:29:04;15.20;41.90
2783;DHT22;1399;47.072;15.452;2023-03-19T16:31:39;15.20;41.90
2783;DHT22;1399;47.072;15.452;2023-03-19T16:34:33;15.20;41.90
2783;DHT22;1399;47.072;15.452;2023-03-19T16:37:00;15.20;41.90
2783;DHT22;1399;47.072;15.452;2023-03-19T16:39:35;15.10;41.90
2783;DHT22;1399;47.072;15.452;2023-03-19T16:44:40;15.10;42.00
2783;DHT22;1399;47.072;15.452;2023-03-19T16:47:11;15.10;42.00
2783;DHT22;1399;47.072;15.452;2023-03-19T16:49:38;15.10;42.00
2783;DHT22;1399;47.072;15.452;2023-03-19T16:52:08;15.00;42.00
2783;DHT22;1399;47.072;15.452;2023-03-19T16:54:36;15.00;42.00
2783;DHT22;1399;47.072;15.452;2023-03-19T16:57:03;15.00;42.00
2783;DHT22;1399;47.072;15.452;2023-03-19T16:59:30;15.00;42.00
2783;DHT22;1399;47.072;15.452;2023-03-19T17:01:56;15.00;42.00
2783;DHT22;1399;47.072;15.452;2023-03-19T17:04:22;15.00;42.10
2783;DHT22;1399;47.072;15.452;2023-03-19T17:06:49;15.00;42.10
2783;DHT22;1399;47.072;15.452;2023-03-19T17:09:15;14.90;42.10
2783;DHT22;1399;47.072;15.452;2023-03-19T17:11:42;14.90;42.10
2783;DHT22;1399;47.072;15.452;2023-03-19T17:14:27;14.90;42.20
2783;DHT22;1399;47.072;15.452;2023-03-19T17:16:53;14.90;42.30
2783;DHT22;1399;47.072;15.452;2023-03-19T17:19:24;14.80;42.20
2783;DHT22;1399;47.072;15.452;2023-03-19T17:21:56;14.80;42.20
2783;DHT22;1399;47.072;15.452;2023-03-19T17:24:27;14.80;42.20
2783;DHT22;1399;47.072;15.452;2023-03-19T17:26:55;14.80;42.30
2783;DHT22;1399;47.072;15.452;2023-03-19T17:29:21;14.80;42.30
2783;DHT22;1399;47.072;15.452;2023-03-19T17:31:51;14.80;42.30
2783;DHT22;1399;47.072;15.452;2023-03-19T17:34:25;14.80;42.30
2783;DHT22;1399;47.072;15.452;2023-03-19T17:37:02;14.80;42.40
2783;DHT22;1399;47.072;15.452;2023-03-19T17:39:29;14.70;42.40
2783;DHT22;1399;47.072;15.452;2023-03-19T17:42:00;14.70;42.40
2783;DHT22;1399;47.072;15.452;2023-03-19T17:44:26;14.70;42.50
2783;DHT22;1399;47.072;15.452;2023-03-19T17:46:53;14.70;42.50
2783;DHT22;1399;47.072;15.452;2023-03-19T17:49:23;14.70;42.50
2783;DHT22;1399;47.072;15.452;2023-03-19T17:51:51;14.70;42.50
2783;DHT22;1399;47.072;15.452;2023-03-19T17:54:17;14.60;42.50
2783;DHT22;1399;47.072;15.452;2023-03-19T17:56:44;14.60;42.50
2783;DHT22;1399;47.072;15.452;2023-03-19T17:59:11;14.60;42.60
2783;DHT22;1399;47.072;15.452;2023-03-19T18:01:40;14.60;42.60
2783;DHT22;1399;47.072;15.452;2023-03-19T18:04:16;14.60;42.60